createdAt,value
2018-09-06T00:01:10.186Z,7.53
2018-09-06T00:03:38.225Z,7.63
2018-09-06T00:06:06.190Z,7.77
2018-09-06T00:08:34.458Z,7.40
2018-09-06T00:11:02.430Z,7.67
2018-09-06T00:13:30.385Z,7.73
2018-09-06T00:15:58.442Z,8.23
2018-09-06T00:18:26.422Z,7.83
2018-09-06T00:20:54.469Z,7.77
2018-09-06T00:23:22.409Z,8.00
2018-09-06T00:25:50.418Z,7.80
2018-09-06T00:28:18.379Z,7.43
2018-09-06T00:30:46.335Z,7.90
2018-09-06T00:33:14.287Z,7.43
2018-09-06T00:35:42.258Z,8.40
2018-09-06T00:38:10.211Z,7.03
2018-09-06T00:40:38.198Z,7.30
2018-09-06T00:43:06.158Z,7.30
2018-09-06T00:45:34.862Z,8.03
2018-09-06T00:48:03.114Z,8.47
2018-09-06T00:50:37.806Z,8.17
2018-09-06T00:53:05.814Z,8.53
2018-09-06T00:55:34.534Z,7.97
2018-09-06T00:58:02.494Z,7.87
2018-09-06T01:00:30.471Z,8.00
2018-09-06T01:02:58.422Z,9.13
2018-09-06T01:05:26.480Z,8.63
2018-09-06T01:07:54.443Z,8.33
2018-09-06T01:10:22.447Z,8.73
2018-09-06T01:12:50.419Z,9.00
2018-09-06T01:15:18.371Z,9.00
2018-09-06T01:17:46.341Z,8.70
2018-09-06T01:20:14.275Z,9.17
2018-09-06T01:22:42.223Z,8.60
2018-09-06T01:25:10.183Z,9.10
2018-09-06T01:27:38.124Z,9.57
2018-09-06T01:30:06.064Z,9.00
2018-09-06T01:32:34.770Z,9.67
2018-09-06T01:35:02.732Z,9.57
2018-09-06T01:37:30.720Z,9.70
2018-09-06T01:39:58.724Z,9.70
2018-09-06T01:42:26.727Z,9.27
2018-09-06T01:44:54.764Z,9.43
2018-09-06T01:47:22.720Z,9.70
2018-09-06T01:49:50.715Z,9.53
2018-09-06T01:52:18.680Z,10.00
2018-09-06T01:54:46.672Z,9.77
2018-09-06T01:57:14.611Z,9.40
2018-09-06T01:59:42.572Z,9.87
2018-09-06T02:02:10.552Z,9.80
2018-09-06T02:04:39.653Z,9.57
2018-09-06T02:07:07.963Z,10.37
2018-09-06T02:09:36.112Z,10.37
2018-09-06T02:12:04.088Z,9.63
2018-09-06T02:14:32.048Z,10.73
2018-09-06T02:17:00.060Z,10.93
2018-09-06T02:19:28.104Z,10.63
2018-09-06T02:21:56.068Z,10.23
2018-09-06T02:24:24.122Z,10.67
2018-09-06T02:26:52.048Z,10.43
2018-09-06T02:29:20.061Z,10.67
2018-09-06T02:31:48.033Z,10.43
2018-09-06T02:34:15.972Z,11.03
2018-09-06T02:36:43.941Z,12.10
2018-09-06T02:39:12.049Z,11.13
2018-09-06T02:41:40.013Z,10.67
2018-09-06T02:44:08.529Z,11.77
2018-09-06T02:46:36.508Z,11.77
2018-09-06T02:49:04.475Z,10.90
2018-09-06T02:51:32.444Z,11.77
2018-09-06T02:54:00.512Z,10.70
2018-09-06T02:56:28.405Z,11.47
2018-09-06T02:58:56.396Z,10.83
2018-09-06T03:01:24.341Z,11.60
2018-09-06T03:03:52.297Z,11.57
2018-09-06T03:06:20.272Z,11.93
2018-09-06T03:08:48.484Z,11.73
2018-09-06T03:11:23.601Z,11.57
2018-09-06T03:13:52.329Z,11.97
2018-09-06T03:16:20.357Z,11.83
2018-09-06T03:18:48.388Z,12.13
2018-09-06T03:21:16.353Z,12.90
2018-09-06T03:23:44.391Z,13.33
2018-09-06T03:26:17.509Z,11.83
2018-09-06T03:28:46.594Z,13.13
2018-09-06T03:31:15.078Z,12.07
2018-09-06T03:33:43.366Z,12.87
2018-09-06T03:36:11.329Z,12.20
2018-09-06T03:38:39.269Z,12.27
2018-09-06T03:41:07.337Z,12.30
2018-09-06T03:43:36.062Z,12.30
2018-09-06T03:46:05.062Z,12.67
2018-09-06T03:48:33.030Z,12.77
2018-09-06T03:51:00.998Z,13.10
2018-09-06T03:56:03.287Z,13.17
2018-09-06T03:58:31.306Z,12.60
2018-09-06T04:00:59.270Z,13.07
2018-09-06T04:03:27.310Z,12.87
2018-09-06T04:05:55.318Z,12.87
2018-09-06T04:08:23.298Z,13.57
2018-09-06T04:10:51.291Z,13.57
2018-09-06T04:13:19.270Z,13.47
2018-09-06T04:15:47.257Z,13.17
2018-09-06T04:18:15.223Z,13.37
2018-09-06T04:20:43.231Z,14.00
2018-09-06T04:23:11.203Z,13.57
2018-09-06T04:25:39.175Z,13.23
2018-09-06T04:28:07.155Z,13.37
2018-09-06T04:30:35.922Z,14.70
2018-09-06T04:33:03.966Z,13.47
2018-09-06T04:35:31.975Z,12.97
2018-09-06T04:37:59.924Z,13.20
2018-09-06T04:40:27.955Z,13.00
2018-09-06T04:42:55.927Z,14.07
2018-09-06T04:45:23.931Z,13.73
2018-09-06T04:47:51.951Z,13.27
2018-09-06T04:50:20.000Z,14.43
2018-09-06T04:52:48.012Z,14.27
2018-09-06T04:55:16.006Z,13.77
2018-09-06T04:57:44.044Z,13.60
2018-09-06T05:00:11.984Z,13.87
2018-09-06T05:02:39.944Z,14.37
2018-09-06T05:05:07.907Z,14.30
2018-09-06T05:07:36.616Z,14.03
2018-09-06T05:10:04.807Z,13.77
2018-09-06T05:12:32.813Z,14.90
2018-09-06T05:15:00.767Z,14.87
2018-09-06T05:17:28.759Z,15.87
2018-09-06T05:19:56.731Z,13.73
2018-09-06T05:22:24.736Z,13.60
2018-09-06T05:24:52.720Z,13.93
2018-09-06T05:27:20.678Z,15.17
2018-09-06T05:29:48.708Z,13.93
2018-09-06T05:32:16.916Z,14.70
2018-09-06T05:34:44.895Z,14.03
2018-09-06T05:37:12.851Z,14.90
2018-09-06T05:39:40.891Z,14.67
2018-09-06T05:42:08.871Z,14.47
2018-09-06T05:44:36.876Z,14.83
2018-09-06T05:47:04.868Z,15.10
2018-09-06T05:49:32.915Z,15.27
2018-09-06T05:52:00.887Z,15.20
2018-09-06T05:54:28.882Z,15.77
2018-09-06T05:56:56.916Z,16.03
2018-09-06T05:59:24.889Z,17.37
2018-09-06T06:01:52.900Z,16.23
2018-09-06T06:04:20.892Z,15.90
2018-09-06T06:06:48.853Z,15.63
2018-09-06T06:09:16.858Z,16.13
2018-09-06T06:11:44.896Z,15.20
2018-09-06T06:14:13.549Z,16.67
2018-09-06T06:16:41.569Z,15.97
2018-09-06T06:19:09.605Z,16.60
2018-09-06T06:21:37.634Z,16.83
2018-09-06T06:24:05.922Z,16.20
2018-09-06T06:26:33.925Z,16.73
2018-09-06T06:29:02.036Z,17.13
2018-09-06T06:31:30.074Z,17.63
2018-09-06T06:33:58.412Z,17.00
2018-09-06T06:36:26.815Z,17.30
2018-09-06T06:38:55.212Z,17.13
2018-09-06T06:41:23.211Z,17.73
2018-09-06T06:43:51.247Z,17.93
2018-09-06T06:46:19.295Z,17.60
2018-09-06T06:48:47.284Z,17.73
2018-09-06T06:51:15.308Z,17.87
2018-09-06T06:53:43.304Z,19.50
2018-09-06T06:56:11.404Z,19.80
2018-09-06T06:58:39.451Z,19.23
2018-09-06T07:01:07.420Z,19.37
2018-09-06T07:03:35.395Z,19.67
2018-09-06T07:06:03.513Z,19.43
2018-09-06T07:08:31.580Z,19.87
2018-09-06T07:10:59.656Z,19.50
2018-09-06T07:13:27.680Z,19.33
2018-09-06T07:15:55.839Z,19.33
2018-09-06T07:18:23.956Z,23.33
2018-09-06T07:20:52.304Z,20.37
2018-09-06T07:23:20.631Z,19.30
2018-09-06T07:25:48.891Z,20.13
2018-09-06T07:28:17.240Z,19.20
2018-09-06T07:30:45.774Z,20.73
2018-09-06T07:33:14.048Z,19.03
2018-09-06T07:35:42.500Z,19.00
2018-09-06T07:38:10.800Z,19.37
2018-09-06T07:40:39.097Z,18.67
2018-09-06T07:43:07.449Z,18.50
2018-09-06T07:45:35.868Z,18.00
2018-09-06T07:48:04.212Z,17.93
2018-09-06T09:18:24.671Z,21.37
2018-09-06T09:20:52.844Z,20.43
2018-09-06T09:23:21.089Z,19.53
2018-09-06T09:25:49.407Z,19.67
2018-09-06T09:28:17.725Z,20.13
2018-09-06T09:30:45.881Z,20.13
2018-09-06T09:33:14.602Z,19.23
2018-09-06T09:35:43.021Z,19.57
2018-09-06T09:38:11.541Z,18.82
2018-09-06T09:40:39.653Z,20.70
2018-09-06T09:43:08.677Z,20.37
2018-09-06T09:45:36.661Z,20.27
2018-09-06T09:48:05.302Z,19.73
2018-09-06T09:53:00.725Z,20.00
2018-09-06T09:55:29.135Z,20.57
2018-09-06T09:57:57.395Z,20.10
2018-09-06T10:00:31.146Z,19.20
2018-09-06T10:03:04.982Z,19.23
2018-09-06T10:05:38.606Z,19.90
2018-09-06T10:08:12.263Z,20.63
2018-09-06T10:10:40.669Z,20.57
2018-09-06T10:13:09.265Z,20.37
2018-09-06T10:15:37.521Z,19.97
2018-09-06T10:18:06.027Z,20.43
2018-09-06T10:20:34.446Z,20.93
2018-09-06T10:23:02.613Z,19.87
2018-09-06T10:25:30.793Z,19.40
2018-09-06T10:27:59.527Z,19.60
2018-09-06T10:30:28.094Z,20.40
2018-09-06T10:32:56.570Z,20.50
2018-09-06T10:35:24.975Z,20.93
2018-09-06T10:37:53.186Z,23.33
2018-09-06T10:40:21.295Z,22.80
2018-09-06T10:45:29.845Z,23.17
2018-09-06T10:47:58.080Z,24.00
2018-09-06T10:50:26.062Z,23.67
2018-09-06T10:52:54.122Z,24.03
2018-09-06T10:55:22.364Z,23.73
2018-09-06T10:57:50.622Z,24.67
2018-09-06T11:00:19.310Z,25.20
2018-09-06T11:02:47.567Z,24.60
2018-09-06T11:05:15.850Z,23.97
2018-09-06T11:07:44.206Z,23.40
2018-09-06T11:10:12.382Z,25.63
2018-09-06T11:12:40.954Z,25.80
2018-09-06T11:15:09.368Z,23.17
2018-09-06T11:17:37.786Z,24.90
2018-09-06T11:20:06.663Z,25.87
2018-09-06T11:22:35.439Z,25.70
2018-09-06T11:25:03.159Z,24.77
2018-09-06T11:27:31.352Z,23.37
2018-09-06T11:30:00.270Z,24.87
2018-09-06T11:32:28.560Z,26.83
2018-09-06T11:34:56.586Z,24.43
2018-09-06T11:37:24.958Z,26.57
2018-09-06T11:39:53.162Z,25.50
2018-09-06T11:42:21.238Z,27.97
2018-09-06T11:44:49.303Z,26.70
2018-09-06T11:47:17.994Z,26.70
2018-09-06T11:49:46.591Z,27.33
2018-09-06T11:52:14.711Z,28.73
2018-09-06T11:54:43.663Z,27.60
2018-09-06T11:57:11.824Z,27.90
2018-09-06T11:59:39.848Z,27.10
2018-09-06T12:02:08.601Z,27.80
2018-09-06T12:04:36.820Z,27.80
2018-09-06T12:07:04.877Z,27.67
2018-09-06T12:09:32.935Z,26.53
2018-09-06T12:12:00.928Z,27.03
2018-09-06T12:14:31.043Z,26.60
2018-09-06T12:16:59.742Z,24.33
2018-09-06T12:19:28.177Z,26.17
2018-09-06T12:21:56.876Z,25.90
2018-09-06T12:24:25.283Z,24.77
2018-09-06T12:26:53.563Z,26.47
2018-09-06T12:29:22.071Z,24.27
2018-09-06T12:31:50.544Z,25.13
2018-09-06T12:34:19.363Z,23.80
2018-09-06T12:36:47.383Z,22.53
2018-09-06T12:39:15.553Z,24.07
2018-09-06T12:41:43.644Z,24.07
2018-09-06T12:44:11.719Z,22.10
2018-09-06T12:46:39.848Z,22.30
2018-09-06T12:49:08.300Z,23.53
2018-09-06T12:51:36.616Z,22.60
2018-09-06T12:54:05.010Z,23.13
2018-09-06T12:56:33.280Z,23.63
2018-09-06T12:59:01.577Z,23.33
2018-09-06T13:01:30.169Z,23.27
2018-09-06T13:03:58.620Z,24.23
2018-09-06T13:06:26.989Z,19.70
2018-09-06T13:08:55.706Z,19.50
2018-09-06T13:11:24.180Z,22.67
2018-09-06T13:13:52.565Z,20.20
2018-09-06T13:16:20.957Z,20.80
2018-09-06T13:18:49.300Z,21.67
2018-09-06T13:21:17.409Z,21.17
2018-09-06T13:23:45.561Z,19.47
2018-09-06T13:26:13.800Z,20.90
2018-09-06T13:28:41.852Z,21.73
2018-09-06T13:31:09.895Z,21.33
2018-09-06T13:33:38.312Z,21.03
2018-09-06T13:36:08.082Z,21.57
2018-09-06T13:38:36.921Z,22.60
2018-09-06T13:41:05.238Z,22.53
2018-09-06T13:43:33.433Z,22.03
2018-09-06T13:46:01.588Z,21.80
2018-09-06T13:48:29.685Z,21.90
2018-09-06T13:50:58.105Z,21.93
2018-09-06T13:53:26.296Z,23.20
2018-09-06T13:55:54.756Z,23.90
2018-09-06T13:58:22.943Z,23.53
2018-09-06T14:00:50.913Z,23.00
2018-09-06T14:03:19.920Z,24.97
2018-09-06T14:05:48.629Z,24.03
2018-09-06T14:08:16.981Z,24.47
2018-09-06T14:10:46.388Z,24.60
2018-09-06T14:13:14.912Z,24.90
2018-09-06T14:15:43.246Z,24.97
2018-09-06T14:18:12.740Z,25.03
2018-09-06T14:20:41.661Z,25.47
2018-09-06T14:23:10.037Z,25.90
2018-09-06T14:25:38.401Z,26.53
2018-09-06T14:28:06.776Z,28.50
2018-09-06T14:30:35.008Z,27.27
2018-09-06T14:33:03.044Z,30.37
2018-09-06T14:35:31.168Z,30.80
2018-09-06T14:37:59.272Z,30.37
2018-09-06T14:40:27.517Z,31.73
2018-09-06T14:42:55.686Z,31.20
2018-09-06T14:45:23.868Z,33.17
2018-09-06T14:47:51.954Z,31.07
2018-09-06T14:50:20.076Z,31.10
2018-09-06T14:52:48.569Z,31.87
2018-09-06T14:55:16.993Z,31.63
2018-09-06T14:57:46.825Z,30.23
2018-09-06T15:00:15.581Z,31.17
2018-09-06T15:02:43.969Z,34.20
2018-09-06T15:05:14.162Z,35.33
2018-09-06T15:07:42.482Z,35.40
2018-09-06T15:10:10.801Z,36.50
2018-09-06T15:12:39.317Z,37.27
2018-09-06T15:15:08.125Z,38.70
2018-09-06T15:17:36.517Z,40.83
2018-09-06T15:20:06.456Z,39.50
2018-09-06T15:22:34.733Z,38.97
2018-09-06T15:25:02.833Z,39.97
2018-09-06T15:27:30.926Z,40.37
2018-09-06T15:29:59.238Z,38.67
2018-09-06T15:32:27.309Z,41.10
2018-09-06T15:34:55.382Z,41.33
2018-09-06T15:37:23.677Z,45.67
2018-09-06T15:39:52.193Z,43.93
2018-09-06T15:42:22.518Z,45.10
2018-09-06T15:44:50.554Z,45.70
2018-09-06T15:50:15.382Z,46.83
2018-09-06T15:52:43.483Z,42.27
2018-09-06T15:55:15.748Z,43.90
2018-09-06T15:57:43.802Z,43.47
2018-09-06T16:00:12.674Z,46.67
2018-09-06T16:02:41.426Z,46.53
2018-09-06T16:05:10.268Z,46.33
2018-09-06T16:07:38.932Z,47.83
2018-09-06T16:10:07.588Z,46.77
2018-09-06T16:12:35.611Z,45.17
2018-09-06T16:15:03.639Z,47.87
2018-09-06T16:17:31.898Z,47.50
2018-09-06T16:20:00.726Z,45.03
2018-09-06T16:22:28.903Z,47.30
2018-09-06T16:24:57.758Z,47.30
2018-09-06T16:27:26.443Z,47.27
2018-09-06T16:29:54.651Z,46.47
2018-09-06T16:32:22.787Z,44.67
2018-09-06T16:34:51.067Z,50.33
2018-09-06T16:37:19.153Z,45.17
2018-09-06T16:39:47.391Z,46.00
2018-09-06T16:42:16.687Z,45.10
2018-09-06T16:44:47.011Z,45.33
2018-09-06T16:47:15.840Z,44.57
2018-09-06T16:49:43.899Z,46.80
2018-09-06T16:52:15.312Z,47.40
2018-09-06T16:54:43.432Z,46.40
2018-09-06T16:57:11.487Z,45.30
2018-09-06T16:59:39.558Z,48.23
2018-09-06T17:02:07.663Z,48.27
2018-09-06T17:04:37.048Z,46.63
2018-09-06T17:07:05.215Z,49.13
2018-09-06T17:09:33.770Z,50.30
2018-09-06T17:12:03.227Z,51.67
2018-09-06T17:14:32.021Z,49.90
2018-09-06T17:17:00.480Z,50.17
2018-09-06T17:19:28.875Z,50.33
2018-09-06T17:21:57.129Z,50.40
2018-09-06T17:24:25.308Z,50.20
2018-09-06T17:26:53.572Z,52.13
2018-09-06T17:29:21.620Z,54.90
2018-09-06T17:31:49.771Z,54.00
2018-09-06T17:34:18.084Z,51.97
2018-09-06T17:36:46.140Z,47.40
2018-09-06T17:39:14.357Z,44.83
2018-09-06T17:41:42.324Z,42.87
2018-09-06T17:44:10.500Z,42.87
2018-09-06T17:46:39.188Z,42.93
2018-09-06T17:49:07.359Z,42.60
2018-09-06T17:51:35.816Z,40.93
2018-09-06T17:54:03.931Z,45.60
2018-09-06T17:56:31.984Z,41.03
2018-09-06T17:59:00.016Z,40.87
2018-09-06T18:01:35.165Z,36.33
2018-09-06T18:04:03.872Z,32.40
2018-09-06T18:06:31.933Z,30.03
2018-09-06T18:08:59.934Z,28.07
2018-09-06T18:11:28.577Z,28.03
2018-09-06T18:13:56.856Z,27.80
2018-09-06T18:16:24.912Z,27.43
2018-09-06T18:18:53.340Z,28.23
2018-09-06T18:21:21.416Z,27.27
2018-09-06T18:23:49.523Z,27.70
2018-09-06T18:26:17.552Z,26.85
2018-09-06T18:28:45.608Z,29.30
2018-09-06T18:31:13.832Z,24.67
2018-09-06T18:33:41.869Z,23.70
2018-09-06T18:36:10.353Z,25.10
2018-09-06T18:38:38.520Z,22.57
2018-09-06T18:41:06.680Z,22.30
2018-09-06T18:43:34.782Z,21.10
2018-09-06T18:46:02.780Z,18.90
2018-09-06T18:48:30.929Z,18.53
2018-09-06T18:50:58.981Z,17.13
2018-09-06T18:53:27.204Z,16.23
2018-09-06T18:55:55.333Z,16.63
2018-09-06T18:58:23.377Z,16.80
2018-09-06T19:00:51.738Z,17.90
2018-09-06T19:03:19.888Z,17.23
2018-09-06T19:05:47.924Z,18.73
2018-09-06T19:08:16.285Z,17.93
2018-09-06T19:10:46.328Z,19.93
2018-09-06T19:13:14.680Z,19.33
2018-09-06T19:15:43.081Z,18.90
2018-09-06T19:18:11.433Z,19.60
2018-09-06T19:20:39.873Z,20.03
2018-09-06T19:23:08.283Z,19.93
2018-09-06T19:25:36.889Z,21.10
2018-09-06T19:28:05.269Z,21.00
2018-09-06T19:30:33.643Z,21.70
2018-09-06T19:33:02.014Z,22.43
2018-09-06T19:35:30.630Z,23.10
2018-09-06T19:37:58.909Z,22.60
2018-09-06T19:40:27.392Z,23.50
2018-09-06T19:42:55.729Z,25.33
2018-09-06T19:45:24.078Z,24.87
2018-09-06T19:47:52.498Z,27.43
2018-09-06T19:50:20.789Z,26.23
2018-09-06T19:52:49.081Z,26.37
2018-09-06T19:55:17.385Z,26.63
2018-09-06T19:57:46.026Z,26.80
2018-09-06T20:00:14.506Z,28.33
2018-09-06T20:02:42.801Z,28.53
2018-09-06T20:05:11.202Z,28.97
2018-09-06T20:07:39.702Z,29.83
2018-09-06T20:10:08.186Z,30.43
2018-09-06T20:12:37.049Z,30.57
2018-09-06T20:15:05.774Z,31.60
2018-09-06T20:17:35.078Z,32.43
2018-09-06T20:20:04.446Z,33.53
2018-09-06T20:22:32.809Z,33.20
2018-09-06T20:25:02.419Z,33.37
2018-09-06T20:27:30.732Z,33.63
2018-09-06T20:30:01.339Z,32.17
2018-09-06T20:32:29.685Z,29.85
2018-09-06T20:34:57.968Z,26.47
2018-09-06T20:37:27.234Z,26.77
2018-09-06T20:39:55.585Z,24.23
2018-09-06T20:42:24.180Z,23.13
2018-09-06T20:44:52.630Z,21.37
2018-09-06T20:47:20.903Z,20.20
2018-09-06T20:49:49.198Z,21.33
2018-09-06T20:52:17.594Z,20.37
2018-09-06T20:54:45.862Z,19.75
2018-09-06T20:57:13.955Z,20.53
2018-09-06T20:59:42.051Z,20.60
2018-09-06T21:02:15.414Z,21.80
2018-09-06T21:04:43.943Z,19.40
2018-09-06T21:07:11.994Z,18.87
2018-09-06T21:09:40.311Z,14.33
2018-09-06T21:12:08.674Z,12.93
2018-09-06T21:14:37.057Z,13.10
2018-09-06T21:17:05.398Z,14.27
2018-09-06T21:19:33.774Z,13.60
2018-09-06T21:22:02.255Z,13.07
2018-09-06T21:24:30.566Z,12.80
2018-09-06T21:26:58.911Z,12.93
2018-09-06T21:29:27.954Z,12.20
2018-09-06T21:31:56.243Z,12.57
2018-09-06T21:34:24.602Z,11.53
2018-09-06T21:36:52.586Z,12.47
2018-09-06T21:39:20.666Z,12.30
2018-09-06T21:41:49.395Z,12.27
2018-09-06T21:44:17.707Z,12.40
2018-09-06T21:46:46.015Z,12.50
2018-09-06T21:49:13.991Z,11.93
2018-09-06T21:51:41.983Z,12.40
2018-09-06T21:54:10.267Z,12.70
2018-09-06T21:56:38.363Z,11.57
2018-09-06T21:59:06.363Z,12.30
2018-09-06T22:01:34.383Z,11.20
2018-09-06T22:04:06.031Z,12.00
2018-09-06T22:06:34.329Z,11.73
2018-09-06T22:09:02.755Z,11.53
2018-09-06T22:11:31.035Z,11.00
2018-09-06T22:13:59.391Z,11.13
2018-09-06T22:16:27.519Z,10.03
2018-09-06T22:18:55.699Z,11.03
2018-09-06T22:21:23.783Z,10.40
2018-09-06T22:23:51.879Z,10.90
2018-09-06T22:26:20.003Z,10.57
2018-09-06T22:28:48.035Z,10.57
2018-09-06T22:31:16.011Z,9.80
2018-09-06T22:33:44.015Z,9.93
2018-09-06T22:36:12.311Z,10.67
2018-09-06T22:38:40.358Z,10.63
2018-09-06T22:41:08.388Z,10.27
2018-09-06T22:43:36.604Z,10.10
2018-09-06T22:46:05.364Z,9.40
2018-09-06T22:48:33.552Z,9.77
2018-09-06T22:51:02.436Z,10.23
2018-09-06T22:53:30.987Z,9.43
2018-09-06T22:55:59.459Z,9.33
2018-09-06T22:58:27.876Z,9.73
2018-09-06T23:00:55.856Z,10.17
2018-09-06T23:03:29.372Z,10.17
2018-09-06T23:05:57.391Z,9.60
2018-09-06T23:08:25.379Z,9.63
2018-09-06T23:10:53.431Z,10.03
2018-09-06T23:13:21.465Z,9.47
2018-09-06T23:15:49.616Z,9.93
2018-09-06T23:18:18.611Z,9.57
2018-09-06T23:20:46.656Z,9.53
2018-09-06T23:23:14.692Z,9.57
2018-09-06T23:25:42.981Z,9.33
2018-09-06T23:28:11.042Z,9.43
2018-09-06T23:30:39.030Z,9.70
2018-09-06T23:33:07.302Z,9.90
2018-09-06T23:35:35.306Z,10.03
2018-09-06T23:38:03.306Z,10.33
2018-09-06T23:40:35.642Z,10.10
2018-09-06T23:43:03.633Z,9.47
2018-09-06T23:45:31.678Z,10.00
2018-09-06T23:47:59.754Z,9.57
2018-09-06T23:50:27.747Z,9.03
2018-09-06T23:52:55.835Z,9.03
2018-09-06T23:55:23.810Z,9.40
2018-09-06T23:57:51.807Z,9.20
